Latest Weather Observations for Coen Airport

IDQ60801

Issued at 11:32 am EST Saturday 4 July 2015 (issued every 30 minutes, with the page automatically refreshed every 10 minutes)

About weather observations | Map of weather stations | Latest weather observations for QLD | Other Formats
Station Details ID: 027073 Name: COEN AIRPORT Lat: -13.76 Lon: 143.12 Height: 159.3 m
Data from the previous 72 hours. | See also: Recent months at Coen Airport
Date/Time
EST
Temp
°C
App
Temp
°C
Dew
Point
Rel
Hum
%
Delta-T
°C
Wind Press
QNH
hPa
Press
MSL
hPa
Rain
since 9 am
mm
Dir
 
Spd
km/h
Gust
km/h
Spd
kts
Gust
kts
04/11:30am 26.6 24.4 13.3 43 7.9 NE 17 26 9 14 1015.8 - 0.0
04/11:00am 26.3 26.8 15.0 49 6.9 ESE 6 13 3 7 1016.1 - 0.0
04/10:30am 24.9 25.4 15.0 54 6.0 SE 6 9 3 5 1016.3 - 0.0
04/10:00am 23.2 23.6 14.7 58 5.1 SSE 6 13 3 7 1016.4 - 0.0
04/09:30am 23.1 23.4 14.9 60 4.9 WSW 7 9 4 5 1016.5 - 0.0
04/09:00am 22.1 22.7 15.9 68 3.8 SSE 7 11 4 6 1016.2 1015.5 0.0
04/08:30am 19.5 21.4 15.8 79 2.2 CALM 0 6 0 3 1016.3 - 0.0
04/08:00am 16.3 17.5 14.8 91 0.9 SSE 2 11 1 6 1015.8 - 0.0
04/07:30am 14.0 14.2 13.2 95 0.4 SSE 4 7 2 4 1015.7 - 0.0
04/07:00am 12.2 12.2 11.3 94 0.5 ESE 2 9 1 5 1015.6 - 0.0
04/06:30am 12.9 13.1 12.0 94 0.5 SSW 2 7 1 4 1015.2 - 0.0
04/06:00am 12.9 13.5 12.0 94 0.5 CALM 0 0 0 0 1014.9 1014.2 0.0
04/05:30am 13.3 12.8 12.2 93 0.6 S 6 9 3 5 1014.7 - 0.0
04/05:00am 13.4 13.7 12.3 93 0.6 NNE 2 7 1 4 1014.9 - 0.0
04/04:30am 13.5 14.2 12.2 92 0.7 CALM 0 0 0 0 1014.8 - 0.0
04/04:00am 13.3 13.8 11.7 90 0.9 CALM 0 0 0 0 1014.8 - 0.0
04/03:30am 14.2 15.1 12.8 91 0.8 CALM 0 0 0 0 1014.8 - 0.0
04/03:00am 14.8 15.4 13.0 89 1.0 W 2 7 1 4 1014.9 1014.2 0.0
04/02:30am 15.6 16.6 13.3 86 1.3 CALM 0 0 0 0 1015.0 - 0.0
04/02:00am 16.4 16.2 12.9 80 2.0 SSW 6 9 3 5 1015.3 - 0.0
04/01:30am 19.0 19.1 14.5 75 2.6 E 7 11 4 6 1015.5 - 0.0
04/01:00am 19.6 19.8 14.8 74 2.8 E 7 13 4 7 1015.8 - 0.0
04/12:30am 18.6 18.5 14.9 79 2.2 E 9 17 5 9 1015.9 - 0.0
04/12:00am 17.1 17.1 15.3 89 1.1 E 9 13 5 7 1016.3 1015.6 0.0
 
Date/Time
EST
Temp
°C
App
Temp
°C
Dew
Point
Rel
Hum
%
Delta-T
°C
Wind Press
QNH
hPa
Press
MSL
hPa
Rain
since 9 am
mm
Dir
 
Spd
km/h
Gust
km/h
Spd
kts
Gust
kts
03/11:30pm 16.5 17.9 14.3 87 1.3 CALM 0 6 0 3 1016.3 - 0.0
03/11:00pm 17.3 18.1 14.8 85 1.5 E 4 7 2 4 1016.4 - 0.0
03/10:30pm 17.6 18.4 14.7 83 1.7 SSE 4 7 2 4 1016.6 - 0.0
03/10:00pm 18.4 19.6 14.9 80 2.1 SSE 2 9 1 5 1016.5 - 0.0
03/09:30pm 19.1 20.7 14.8 76 2.5 CALM 0 0 0 0 1016.4 - 0.0
03/09:00pm 19.7 21.1 15.4 76 2.6 ESE 2 7 1 4 1016.3 1015.6 0.0
03/08:30pm 19.5 20.8 15.2 76 2.5 SE 2 9 1 5 1016.1 - 0.0
03/08:00pm 20.0 21.7 15.2 74 2.8 CALM 0 0 0 0 1015.7 - 0.0
03/07:30pm 20.5 21.4 15.1 71 3.2 NE 4 7 2 4 1015.4 - 0.0
03/07:00pm 21.5 22.2 15.6 69 3.5 ENE 6 11 3 6 1015.2 - 0.0
03/06:30pm 22.4 22.3 15.0 63 4.4 ENE 9 11 5 6 1015.0 - 0.0
03/06:00pm 23.7 23.3 14.1 55 5.7 E 9 17 5 9 1014.5 1013.8 0.0
03/05:30pm 25.2 24.7 13.7 49 6.8 E 9 13 5 7 1014.3 - 0.0
03/05:00pm 25.9 24.6 12.4 43 7.8 E 11 17 6 9 1014.0 - 0.0
03/04:30pm 26.3 23.7 12.0 41 8.3 ESE 17 32 9 17 1013.6 - 0.0
03/04:00pm 26.7 23.9 11.2 38 8.9 ESE 17 24 9 13 1013.5 - 0.0
03/03:30pm 26.4 23.8 12.1 41 8.3 ESE 17 26 9 14 1013.5 - 0.0
03/03:00pm 25.5 22.6 13.0 46 7.3 SE 20 28 11 15 1013.7 1013.0 0.0
03/02:30pm 26.3 24.1 12.0 41 8.3 E 15 22 8 12 1014.0 - 0.0
03/02:00pm 27.9 25.6 13.1 40 8.8 E 17 26 9 14 1014.3 - 0.0
03/01:30pm 28.1 25.6 12.4 37 9.2 NE 17 26 9 14 1014.7 - 0.0
03/01:00pm 27.8 25.5 13.0 40 8.8 ENE 17 30 9 16 1015.0 - 0.0
03/12:30pm 26.8 23.8 12.1 40 8.5 ENE 19 30 10 16 1015.6 - 0.0
03/12:00pm 26.5 23.7 12.5 41 8.2 E 19 28 10 15 1016.1 1015.4 0.0
03/11:30am 26.7 24.4 13.1 43 8.0 ENE 17 26 9 14 1016.5 - 0.0
03/11:00am 25.7 23.6 13.5 46 7.2 E 17 26 9 14 1016.8 - 0.0
03/10:30am 25.4 23.5 12.9 45 7.3 E 15 22 8 12 1017.0 - 0.0
03/10:00am 25.0 22.4 13.2 48 6.9 E 19 32 10 17 1017.2 - 0.0
03/09:30am 25.0 24.4 14.5 52 6.3 ENE 11 22 6 12 1017.1 - 0.0
03/09:00am 24.4 24.0 15.3 57 5.5 ESE 11 20 6 11 1017.0 1016.4 0.0
03/08:30am 23.2 23.0 15.8 63 4.5 SE 11 17 6 9 1016.9 - 0.0
03/08:00am 21.8 22.0 16.7 73 3.1 SE 11 17 6 9 1016.5 - 0.0
03/07:30am 19.2 20.8 17.0 87 1.3 S 4 9 2 5 1016.3 - 0.0
03/07:00am 16.1 16.8 14.5 90 0.9 WSW 4 7 2 4 1016.2 - 0.0
03/06:30am 16.1 16.3 14.3 89 1.0 NW 6 9 3 5 1015.9 - 0.0
03/06:00am 15.9 16.9 14.4 91 0.9 WNW 2 7 1 4 1015.6 1014.9 0.0
03/05:30am 15.8 15.9 14.0 89 1.0 W 6 9 3 5 1015.5 - 0.0
03/05:00am 16.5 17.3 14.7 89 1.0 NE 4 11 2 6 1015.5 - 0.0
03/04:30am 16.9 18.4 14.7 87 1.3 CALM 0 0 0 0 1015.5 - 0.0
03/04:00am 17.1 18.5 14.4 84 1.6 CALM 0 6 0 3 1015.5 - 0.0
03/03:30am 18.0 18.5 15.1 83 1.7 NNW 6 13 3 7 1015.6 - 0.0
03/03:00am 18.1 19.1 14.2 78 2.3 SW 2 11 1 6 1015.5 1014.8 0.0
03/02:30am 19.8 19.8 15.2 75 2.7 E 9 22 5 12 1015.8 - 0.0
03/02:00am 19.4 20.0 15.3 77 2.4 S 6 9 3 5 1016.1 - 0.0
03/01:30am 20.7 21.0 15.0 70 3.4 ESE 7 17 4 9 1016.1 - 0.0
03/01:00am 22.0 22.1 15.4 66 4.0 SSE 9 15 5 8 1016.4 - 0.0
03/12:30am 21.8 22.3 15.6 68 3.7 ESE 7 17 4 9 1016.6 - 0.0
03/12:00am 21.4 22.0 15.3 68 3.6 ESE 6 11 3 6 1016.8 1016.2 0.0
 
Date/Time
EST
Temp
°C
App
Temp
°C
Dew
Point
Rel
Hum
%
Delta-T
°C
Wind Press
QNH
hPa
Press
MSL
hPa
Rain
since 9 am
mm
Dir
 
Spd
km/h
Gust
km/h
Spd
kts
Gust
kts
02/11:30pm 21.8 23.2 15.4 67 3.8 NNW 2 9 1 5 1017.0 - 0.0
02/11:00pm 22.1 22.6 15.5 66 4.0 NNE 7 13 4 7 1017.2 - 0.0
02/10:30pm 22.2 22.4 15.8 67 3.9 E 9 13 5 7 1017.5 - 0.0
02/10:00pm 22.1 21.6 15.9 68 3.8 NNE 13 20 7 11 1017.5 - 0.0
02/09:30pm 22.0 21.8 15.8 68 3.7 NE 11 19 6 10 1017.6 - 0.0
02/09:00pm 21.4 22.5 16.6 74 2.9 NE 6 17 3 9 1017.3 1016.7 0.0
02/08:30pm 20.8 21.9 16.6 77 2.6 NNE 6 9 3 5 1017.2 - 0.0
02/08:00pm 20.8 21.5 16.2 75 2.8 NNW 7 9 4 5 1017.0 - 0.0
02/07:30pm 21.7 22.2 16.6 73 3.1 NE 9 15 5 8 1016.8 - 0.0
02/07:00pm 22.1 22.6 16.6 71 3.4 ENE 9 13 5 7 1016.4 - 0.0
02/06:30pm 22.6 22.7 16.4 68 3.8 NE 11 17 6 9 1016.1 - 0.0
02/06:00pm 23.2 23.1 16.0 64 4.4 NE 11 15 6 8 1015.9 1015.2 0.0
02/05:30pm 24.1 23.8 16.4 62 4.7 NE 13 19 7 10 1015.7 - 0.0
02/05:00pm 25.3 23.8 16.4 57 5.5 ENE 19 28 10 15 1015.4 - 0.0
02/04:30pm 25.9 24.9 16.5 56 5.8 E 17 22 9 12 1015.4 - 0.0
02/04:00pm 27.7 26.0 15.7 48 7.4 ENE 19 26 10 14 1015.2 - 0.0
02/03:30pm 27.6 26.2 14.6 45 7.9 E 15 20 8 11 1015.1 - 0.0
02/03:00pm 27.6 25.9 14.6 45 7.9 E 17 26 9 14 1015.3 1014.6 0.0
02/02:30pm 28.8 25.7 14.6 42 8.6 SE 24 35 13 19 1015.6 - 0.0
02/02:00pm 28.7 25.7 14.9 43 8.4 SE 24 32 13 17 1015.9 - 0.0
02/01:30pm 28.6 26.3 14.1 41 8.8 ESE 19 28 10 15 1016.3 - 0.0
02/01:00pm 28.1 26.0 14.7 44 8.1 ESE 19 35 10 19 1016.9 - 0.0
02/12:30pm 27.9 26.9 15.5 46 7.6 E 15 26 8 14 1017.2 - 0.0
02/12:00pm 26.3 25.3 15.7 52 6.5 E 15 30 8 16 1017.7 1017.0 0.0
02/11:30am 27.1 25.5 16.1 51 6.8 SE 19 30 10 16 1018.1 - 0.0
02/11:00am 26.8 26.0 16.1 52 6.6 E 15 26 8 14 1018.4 - 0.0
02/10:30am 26.0 25.6 17.1 58 5.6 E 15 26 8 14 1018.7 - 0.0
02/10:00am 24.8 22.8 16.5 60 5.1 SE 22 32 12 17 1019.1 - 0.0
02/09:30am 25.1 25.3 16.8 60 5.2 ESE 11 17 6 9 1019.2 - 0.0
02/09:00am 24.4 25.3 16.6 61 4.8 E 7 17 4 9 1019.0 1018.3 0.0
02/08:30am 22.9 24.1 16.9 69 3.7 W 6 11 3 6 1018.7 - 0.0
02/08:00am 20.5 22.1 16.9 80 2.2 NE 4 11 2 6 1018.4 - 0.0
02/07:30am 18.4 19.5 16.6 89 1.1 NNE 6 11 3 6 1018.2 - 0.0
02/07:00am 16.5 17.4 15.2 92 0.8 SSE 4 9 2 5 1017.8 - 0.0
02/06:30am 16.1 17.2 14.5 90 0.9 N 2 7 1 4 1017.5 - 0.0
02/06:00am 16.6 17.1 15.5 93 0.6 SW 7 17 4 9 1017.1 1016.5 0.0
02/05:30am 14.5 14.8 13.4 93 0.6 NNW 4 11 2 6 1017.0 - 0.0
02/05:00am 14.4 13.4 13.3 93 0.6 S 11 13 6 7 1016.7 - 0.0
02/04:30am 14.7 14.6 13.4 92 0.7 S 6 7 3 4 1016.5 - 0.0
02/04:00am 15.5 15.8 14.5 94 0.6 SSE 6 9 3 5 1016.6 - 0.0
02/03:30am 15.7 17.2 14.6 93 0.6 CALM 0 6 0 3 1016.8 - 0.0
02/03:00am 15.8 16.9 14.5 92 0.7 ESE 2 7 1 4 1017.0 1016.4 0.0
02/02:30am 16.1 16.3 14.1 88 1.1 ESE 6 7 3 4 1017.2 - 0.0
02/02:00am 18.0 19.3 16.2 89 1.1 S 4 9 2 5 1017.8 - 0.0
02/01:30am 18.5 20.2 16.1 86 1.4 SSW 2 9 1 5 1018.2 - 0.0
02/01:00am 17.8 19.3 15.8 88 1.2 E 2 7 1 4 1018.4 - 0.0
02/12:30am 18.8 20.8 16.9 89 1.2 SE 2 7 1 4 1018.6 - 0.0
02/12:00am 18.7 20.4 16.3 86 1.4 ESE 2 6 1 3 1018.7 1018.0 0.0
 
Date/Time
EST
Temp
°C
App
Temp
°C
Dew
Point
Rel
Hum
%
Delta-T
°C
Wind Press
QNH
hPa
Press
MSL
hPa
Rain
since 9 am
mm
Dir
 
Spd
km/h
Gust
km/h
Spd
kts
Gust
kts
01/11:30pm 20.4 21.2 17.2 82 2.0 ESE 9 11 5 6 1018.9 - 0.0
01/11:00pm 20.6 21.7 18.0 85 1.6 ESE 9 17 5 9 1019.2 - 0.0
01/10:30pm 19.4 20.8 17.7 90 1.0 E 7 11 4 6 1019.3 - 0.0
01/10:00pm 18.5 20.0 16.7 89 1.1 NE 4 7 2 4 1019.2 - 0.0
01/09:30pm 18.8 20.7 16.8 88 1.2 N 2 7 1 4 1019.0 - 0.0
01/09:00pm 18.8 20.5 16.2 85 1.6 ENE 2 9 1 5 1018.7 1018.0 0.0
01/08:30pm 20.2 21.5 17.0 82 2.0 ENE 6 9 3 5 1018.6 - 0.0
01/08:00pm 21.1 22.2 17.1 78 2.5 SE 7 9 4 5 1018.3 - 0.0
01/07:30pm 22.1 23.0 17.5 75 2.9 SE 9 11 5 6 1017.9 - 0.0
01/07:00pm 22.9 24.3 17.8 73 3.2 ESE 7 9 4 5 1017.7 - 0.0
01/06:30pm 23.5 24.8 17.5 69 3.7 ESE 7 9 4 5 1017.3 - 0.0
01/06:00pm 24.3 25.2 17.5 66 4.3 ESE 9 15 5 8 1017.0 1016.4 0.0
01/05:30pm 25.3 25.4 17.5 62 4.9 ESE 13 17 7 9 1016.7 - 0.0
01/05:00pm 25.7 25.9 17.6 61 5.1 SE 13 17 7 9 1016.5 - 0.0
01/04:30pm 26.2 26.5 17.8 60 5.3 SE 13 17 7 9 1016.2 - 0.0
01/04:00pm 26.2 26.5 17.8 60 5.3 ESE 13 19 7 10 1016.1 - 0.0
01/03:30pm 26.5 24.8 17.3 57 5.8 SE 22 30 12 16 1016.2 - 0.0
01/03:00pm 26.3 25.1 17.4 58 5.6 ESE 20 28 11 15 1016.3 1015.6 0.0
01/02:30pm 25.6 26.2 17.8 62 4.9 E 11 19 6 10 1016.5 - 0.0
01/02:00pm 26.0 25.3 17.4 59 5.4 SE 17 26 9 14 1016.6 - 0.0
01/01:30pm 25.5 24.4 17.4 61 5.1 SE 19 28 10 15 1017.1 - 0.0
01/01:00pm 25.5 24.4 17.4 61 5.1 ESE 19 30 10 16 1017.6 - 0.0
01/12:30pm 25.4 23.7 17.3 61 5.1 SE 22 30 12 16 1017.9 - 0.0
01/12:00pm 26.5 24.3 17.0 56 5.9 SSE 24 33 13 18 1018.1 1017.4 0.0

Other Formats:

Comma delimited format used in spreadsheet applications
http://www.bom.gov.au/fwo/IDQ60801/IDQ60801.94183.axf

JavaScript Object Notation format (JSON) in row-major order
http://www.bom.gov.au/fwo/IDQ60801/IDQ60801.94183.json